createdAt,value
2018-04-10T00:00:05.109Z,12.63
2018-04-10T00:01:05.107Z,12.68
2018-04-10T00:02:05.112Z,12.65
2018-04-10T00:03:05.107Z,12.68
2018-04-10T00:04:05.107Z,12.68
2018-04-10T00:05:05.106Z,12.75
2018-04-10T00:06:05.107Z,12.69
2018-04-10T00:07:05.121Z,12.68
2018-04-10T00:08:05.104Z,12.78
2018-04-10T00:09:05.105Z,12.65
2018-04-10T00:10:05.110Z,12.63
2018-04-10T00:11:05.105Z,12.69
2018-04-10T00:12:05.105Z,12.65
2018-04-10T00:13:05.104Z,12.62
2018-04-10T00:14:05.104Z,12.55
2018-04-10T00:15:05.104Z,12.62
2018-04-10T00:16:05.101Z,12.57
2018-04-10T00:17:05.101Z,12.54
2018-04-10T00:18:05.106Z,12.55
2018-04-10T00:19:05.101Z,12.61
2018-04-10T00:20:05.101Z,12.62
2018-04-10T00:21:05.100Z,12.50
2018-04-10T00:22:05.099Z,12.50
2018-04-10T00:23:05.100Z,12.53
2018-04-10T00:24:05.098Z,12.47
2018-04-10T00:25:05.098Z,12.37
2018-04-10T00:26:05.103Z,12.35
2018-04-10T00:27:05.101Z,12.37
2018-04-10T00:28:05.140Z,12.36
2018-04-10T00:29:05.097Z,12.35
2018-04-10T00:30:05.097Z,12.23
2018-04-10T00:31:05.096Z,12.26
2018-04-10T00:32:05.096Z,12.17
2018-04-10T00:33:05.096Z,12.08
2018-04-10T00:34:05.098Z,12.12
2018-04-10T00:35:05.097Z,12.11
2018-04-10T00:36:05.093Z,12.00
2018-04-10T00:37:05.093Z,11.99
2018-04-10T00:38:05.092Z,11.88
2018-04-10T00:39:05.092Z,11.85
2018-04-10T00:40:05.092Z,11.80
2018-04-10T00:41:05.092Z,11.77
2018-04-10T00:42:05.090Z,11.68
2018-04-10T00:43:05.090Z,11.59
2018-04-10T00:44:05.090Z,11.62
2018-04-10T00:45:05.087Z,11.60
2018-04-10T00:46:05.087Z,11.60
2018-04-10T00:47:05.088Z,11.59
2018-04-10T00:48:05.085Z,11.59
2018-04-10T00:49:05.084Z,11.63
2018-04-10T00:50:05.083Z,11.63
2018-04-10T00:51:05.083Z,11.62
2018-04-10T00:52:05.082Z,11.67
2018-04-10T00:53:05.081Z,11.76
2018-04-10T00:54:05.081Z,11.83
2018-04-10T00:55:05.079Z,11.85
2018-04-10T00:56:05.078Z,11.88
2018-04-10T00:57:05.078Z,11.85
2018-04-10T00:58:05.076Z,11.95
2018-04-10T00:59:05.076Z,11.99
2018-04-10T01:00:05.075Z,12.08
2018-04-10T01:01:05.075Z,12.08
2018-04-10T01:02:05.073Z,12.15
2018-04-10T01:03:05.073Z,12.17
2018-04-10T01:04:05.071Z,12.15
2018-04-10T01:05:05.073Z,12.03
2018-04-10T01:06:05.071Z,12.18
2018-04-10T01:07:05.070Z,12.11
2018-04-10T01:08:05.069Z,12.08
2018-04-10T01:09:05.068Z,12.18
2018-04-10T01:10:05.070Z,12.12
2018-04-10T01:11:05.067Z,12.14
2018-04-10T01:12:05.064Z,12.03
2018-04-10T01:13:05.064Z,12.10
2018-04-10T01:14:05.063Z,12.02
2018-04-10T01:15:05.064Z,12.10
2018-04-10T01:16:05.062Z,12.08
2018-04-10T01:17:05.061Z,12.08
2018-04-10T01:18:05.060Z,12.20
2018-04-10T01:19:05.061Z,12.21
2018-04-10T01:20:05.061Z,12.03
2018-04-10T01:21:05.061Z,12.12
2018-04-10T01:22:05.057Z,11.99
2018-04-10T01:23:05.056Z,11.96
2018-04-10T01:24:05.056Z,11.88
2018-04-10T01:25:05.054Z,11.78
2018-04-10T01:26:05.055Z,11.78
2018-04-10T01:27:05.052Z,11.76
2018-04-10T01:28:05.052Z,11.67
2018-04-10T01:29:05.050Z,11.53
2018-04-10T01:30:05.051Z,11.63
2018-04-10T01:31:05.049Z,11.65
2018-04-10T01:32:05.049Z,11.56
2018-04-10T01:33:05.054Z,11.74
2018-04-10T01:34:05.046Z,11.73
2018-04-10T01:35:05.045Z,11.76
2018-04-10T01:36:05.043Z,11.80
2018-04-10T01:37:05.043Z,11.77
2018-04-10T01:38:05.043Z,11.80
2018-04-10T01:39:05.041Z,11.85
2018-04-10T01:40:05.040Z,11.81
2018-04-10T01:41:05.040Z,11.83
2018-04-10T01:42:05.038Z,11.88
2018-04-10T01:43:05.041Z,12.03
2018-04-10T01:44:05.036Z,12.07
2018-04-10T01:45:05.035Z,12.08
2018-04-10T01:46:05.035Z,12.20
2018-04-10T01:47:05.034Z,12.12
2018-04-10T01:48:05.032Z,12.23
2018-04-10T01:49:05.032Z,12.26
2018-04-10T01:50:05.031Z,12.28
2018-04-10T01:51:05.031Z,12.29
2018-04-10T01:52:05.029Z,12.30
2018-04-10T01:53:05.028Z,12.28
2018-04-10T01:54:05.028Z,12.30
2018-04-10T01:55:05.027Z,12.29
2018-04-10T01:56:05.026Z,12.30
2018-04-10T01:57:05.026Z,12.17
2018-04-10T01:58:05.025Z,12.17
2018-04-10T01:59:05.031Z,12.11
2018-04-10T02:00:05.023Z,11.97
2018-04-10T02:01:05.023Z,12.03
2018-04-10T02:02:05.023Z,11.95
2018-04-10T02:03:05.022Z,11.93
2018-04-10T02:04:05.019Z,11.88
2018-04-10T02:05:05.019Z,11.78
2018-04-10T02:06:05.018Z,11.78
2018-04-10T02:07:05.020Z,11.76
2018-04-10T02:08:05.019Z,11.67
2018-04-10T02:09:05.016Z,11.74
2018-04-10T02:10:05.016Z,11.60
2018-04-10T02:11:05.014Z,11.59
2018-04-10T02:17:22.660Z,11.48
2018-04-10T02:18:22.658Z,11.51
2018-04-10T02:19:22.657Z,11.58
2018-04-10T02:20:22.656Z,11.59
2018-04-10T02:21:22.656Z,11.60
2018-04-10T02:22:22.655Z,11.60
2018-04-10T02:23:22.655Z,11.63
2018-04-10T02:24:22.652Z,11.60
2018-04-10T02:25:22.652Z,11.60
2018-04-10T02:26:22.652Z,11.60
2018-04-10T02:27:22.650Z,11.63
2018-04-10T02:28:22.648Z,11.73
2018-04-10T02:29:22.647Z,11.65
2018-04-10T02:30:22.649Z,11.83
2018-04-10T02:31:22.645Z,11.81
2018-04-10T02:32:22.645Z,11.81
2018-04-10T02:33:22.643Z,11.77
2018-04-10T02:34:22.642Z,11.78
2018-04-10T02:35:22.644Z,11.67
2018-04-10T02:36:22.640Z,11.59
2018-04-10T02:37:22.638Z,11.48
2018-04-10T02:38:22.636Z,11.38
2018-04-10T02:39:22.637Z,11.30
2018-04-10T02:40:22.635Z,11.33
2018-04-10T02:41:22.635Z,11.27
2018-04-10T02:42:22.633Z,11.25
2018-04-10T02:43:22.633Z,11.19
2018-04-10T02:44:22.632Z,11.33
2018-04-10T02:45:22.632Z,11.34
2018-04-10T02:46:22.629Z,11.43
2018-04-10T02:47:22.638Z,11.53
2018-04-10T02:48:22.629Z,11.60
2018-04-10T02:49:22.625Z,11.60
2018-04-10T02:50:22.631Z,11.63
2018-04-10T02:51:22.624Z,11.67
2018-04-10T02:52:22.621Z,11.78
2018-04-10T02:53:22.619Z,11.88
2018-04-10T02:54:22.619Z,11.91
2018-04-10T02:55:22.619Z,12.03
2018-04-10T02:56:22.617Z,12.08
2018-04-10T02:57:22.616Z,12.21
2018-04-10T02:58:22.615Z,12.32
2018-04-10T02:59:22.615Z,12.29
2018-04-10T03:00:22.613Z,12.32
2018-04-10T03:01:22.612Z,12.28
2018-04-10T03:02:22.612Z,12.29
2018-04-10T03:03:22.611Z,12.35
2018-04-10T03:04:22.609Z,12.37
2018-04-10T03:05:22.612Z,12.33
2018-04-10T03:06:22.611Z,12.37
2018-04-10T03:07:22.608Z,12.32
2018-04-10T03:08:22.606Z,12.29
2018-04-10T03:09:22.606Z,12.28
2018-04-10T03:10:22.606Z,12.25
2018-04-10T03:11:22.604Z,12.28
2018-04-10T03:12:22.603Z,12.20
2018-04-10T03:13:22.602Z,12.15
2018-04-10T03:14:22.602Z,12.17
2018-04-10T03:15:22.605Z,12.26
2018-04-10T03:16:22.599Z,12.30
2018-04-10T03:17:22.599Z,12.18
2018-04-10T03:18:22.599Z,12.20
2018-04-10T03:19:22.598Z,12.15
2018-04-10T03:20:22.597Z,12.15
2018-04-10T03:21:22.597Z,12.25
2018-04-10T03:22:22.596Z,12.07
2018-04-10T03:23:22.596Z,12.00
2018-04-10T03:24:22.595Z,12.11
2018-04-10T03:25:22.595Z,12.20
2018-04-10T03:26:22.595Z,12.08
2018-04-10T03:27:22.593Z,12.07
2018-04-10T03:28:22.593Z,12.07
2018-04-10T03:29:22.593Z,12.10
2018-04-10T03:30:22.592Z,12.18
2018-04-10T03:31:22.590Z,12.23
2018-04-10T03:32:22.590Z,12.21
2018-04-10T03:33:22.590Z,12.14
2018-04-10T03:34:22.588Z,12.03
2018-04-10T03:35:22.589Z,12.18
2018-04-10T03:36:22.587Z,12.18
2018-04-10T03:37:22.587Z,12.11
2018-04-10T03:38:22.587Z,12.17
2018-04-10T03:39:22.586Z,12.21
2018-04-10T03:40:22.585Z,12.21
2018-04-10T03:41:22.584Z,12.20
2018-04-10T03:42:22.584Z,12.20
2018-04-10T03:43:22.582Z,12.23
2018-04-10T03:44:22.582Z,12.21
2018-04-10T03:45:22.580Z,12.30
2018-04-10T03:46:22.581Z,12.32
2018-04-10T03:47:22.580Z,12.30
2018-04-10T03:48:22.582Z,12.29
2018-04-10T03:49:22.579Z,12.28
2018-04-10T03:50:22.579Z,12.30
2018-04-10T03:51:22.581Z,12.21
2018-04-10T03:52:22.577Z,12.25
2018-04-10T03:53:22.577Z,12.18
2018-04-10T03:54:22.577Z,12.08
2018-04-10T03:55:22.576Z,12.08
2018-04-10T03:56:22.577Z,12.07
2018-04-10T03:57:22.576Z,12.05
2018-04-10T03:58:22.575Z,11.96
2018-04-10T03:59:22.574Z,11.89
2018-04-10T04:00:22.574Z,11.93
2018-04-10T04:01:22.572Z,11.95
2018-04-10T04:02:22.570Z,11.89
2018-04-10T04:03:22.571Z,11.86
2018-04-10T04:04:22.570Z,11.91
2018-04-10T04:05:22.568Z,11.89
2018-04-10T04:06:22.570Z,11.89
2018-04-10T04:07:22.568Z,12.07
2018-04-10T04:08:22.566Z,12.03
2018-04-10T04:09:22.566Z,12.12
2018-04-10T04:10:22.569Z,12.11
2018-04-10T04:11:22.565Z,12.05
2018-04-10T04:12:22.564Z,12.10
2018-04-10T04:13:22.565Z,12.23
2018-04-10T04:14:22.562Z,12.17
2018-04-10T04:15:22.563Z,12.26
2018-04-10T04:16:22.562Z,12.21
2018-04-10T04:17:22.561Z,12.20
2018-04-10T04:18:22.560Z,12.25
2018-04-10T04:19:22.560Z,12.17
2018-04-10T04:20:22.557Z,12.25
2018-04-10T04:21:22.558Z,12.29
2018-04-10T04:22:22.558Z,12.32
2018-04-10T04:23:22.556Z,12.37
2018-04-10T04:24:22.557Z,12.37
2018-04-10T04:25:22.557Z,12.36
2018-04-10T04:26:22.555Z,12.37
2018-04-10T04:27:22.554Z,12.32
2018-04-10T04:28:22.553Z,12.35
2018-04-10T04:29:22.552Z,12.29
2018-04-10T04:30:22.552Z,12.29
2018-04-10T04:31:22.553Z,12.32
2018-04-10T04:32:22.550Z,12.26
2018-04-10T04:33:22.550Z,12.32
2018-04-10T04:34:22.550Z,12.28
2018-04-10T04:35:22.548Z,12.30
2018-04-10T04:36:22.547Z,12.32
2018-04-10T04:37:22.547Z,12.14
2018-04-10T04:38:22.547Z,12.14
2018-04-10T04:39:22.547Z,12.12
2018-04-10T04:40:22.545Z,12.20
2018-04-10T04:41:22.545Z,12.12
2018-04-10T04:42:22.544Z,12.26
2018-04-10T04:43:22.543Z,12.18
2018-04-10T04:44:22.542Z,12.21
2018-04-10T04:45:22.542Z,12.21
2018-04-10T04:46:22.542Z,12.23
2018-04-10T04:47:22.541Z,12.20
2018-04-10T04:48:22.539Z,12.18
2018-04-10T04:49:22.539Z,12.18
2018-04-10T04:50:22.539Z,12.08
2018-04-10T04:51:22.541Z,11.96
2018-04-10T04:52:22.537Z,11.91
2018-04-10T04:53:22.537Z,11.95
2018-04-10T04:54:22.535Z,11.85
2018-04-10T04:55:22.535Z,11.78
2018-04-10T04:56:22.534Z,11.71
2018-04-10T04:57:22.533Z,11.74
2018-04-10T04:58:22.533Z,11.70
2018-04-10T04:59:22.800Z,11.78
2018-04-10T05:00:22.531Z,11.77
2018-04-10T05:01:22.530Z,11.81
2018-04-10T05:02:22.531Z,11.81
2018-04-10T05:03:22.528Z,11.88
2018-04-10T05:04:22.528Z,11.91
2018-04-10T05:05:22.528Z,11.96
2018-04-10T05:06:22.526Z,11.95
2018-04-10T05:07:22.526Z,11.89
2018-04-10T05:08:22.570Z,11.83
2018-04-10T05:09:22.525Z,11.93
2018-04-10T05:10:22.525Z,11.80
2018-04-10T05:11:22.523Z,11.78
2018-04-10T05:12:22.522Z,11.76
2018-04-10T05:13:22.520Z,11.65
2018-04-10T05:14:22.522Z,11.63
2018-04-10T05:15:22.530Z,11.67
2018-04-10T05:16:22.519Z,11.63
2018-04-10T05:17:22.518Z,11.62
2018-04-10T05:18:22.518Z,11.78
2018-04-10T05:19:22.517Z,11.71
2018-04-10T05:20:22.515Z,11.83
2018-04-10T05:21:22.514Z,11.86
2018-04-10T05:22:22.515Z,11.93
2018-04-10T05:23:22.513Z,11.88
2018-04-10T05:24:22.512Z,11.93
2018-04-10T05:25:22.511Z,11.95
2018-04-10T05:26:22.511Z,12.02
2018-04-10T05:27:22.511Z,12.02
2018-04-10T05:28:22.509Z,12.10
2018-04-10T05:29:22.509Z,12.08
2018-04-10T05:30:22.509Z,12.10
2018-04-10T05:31:22.510Z,12.11
2018-04-10T05:32:22.507Z,12.05
2018-04-10T05:33:22.507Z,12.05
2018-04-10T05:34:22.506Z,12.07
2018-04-10T05:35:22.505Z,12.15
2018-04-10T05:36:22.505Z,12.07
2018-04-10T05:37:22.504Z,12.10
2018-04-10T05:38:22.504Z,12.07
2018-04-10T05:39:22.503Z,12.11
2018-04-10T05:40:22.502Z,12.11
2018-04-10T05:41:22.506Z,12.15
2018-04-10T05:42:22.503Z,12.23
2018-04-10T05:43:22.500Z,12.20
2018-04-10T05:44:22.503Z,12.18
2018-04-10T05:45:22.501Z,12.32
2018-04-10T05:46:22.530Z,12.29
2018-04-10T05:47:22.500Z,12.21
2018-04-10T05:48:22.499Z,12.29
2018-04-10T05:49:22.497Z,12.17
2018-04-10T05:50:22.498Z,12.10
2018-04-10T05:51:22.498Z,12.08
2018-04-10T05:52:22.496Z,12.15
2018-04-10T05:53:22.496Z,12.11
2018-04-10T05:54:22.496Z,12.10
2018-04-10T05:55:22.496Z,12.17
2018-04-10T05:56:22.495Z,12.05
2018-04-10T05:57:22.495Z,12.11
2018-04-10T05:58:22.494Z,12.15
2018-04-10T05:59:22.494Z,12.08
2018-04-10T06:00:22.495Z,12.10
2018-04-10T06:01:22.493Z,12.02
2018-04-10T06:02:22.619Z,11.88
2018-04-10T06:03:22.576Z,11.89
2018-04-10T06:04:22.537Z,11.97
2018-04-10T06:05:22.517Z,11.86
2018-04-10T06:06:22.536Z,11.95
2018-04-10T06:07:22.567Z,12.07
2018-04-10T06:08:22.491Z,12.10
2018-04-10T06:09:22.491Z,12.08
2018-04-10T06:10:22.490Z,12.03
2018-04-10T06:11:22.491Z,12.07
2018-04-10T06:12:22.489Z,12.08
2018-04-10T06:13:22.758Z,11.96
2018-04-10T06:14:22.490Z,11.88
2018-04-10T06:15:22.492Z,11.88
2018-04-10T06:16:22.493Z,11.96
2018-04-10T06:17:22.489Z,11.91
2018-04-10T06:18:22.490Z,12.05
2018-04-10T06:19:22.488Z,12.11
2018-04-10T06:20:22.489Z,12.15
2018-04-10T06:21:22.490Z,12.20
2018-04-10T06:22:22.489Z,12.28
2018-04-10T06:23:22.492Z,12.29
2018-04-10T06:24:22.487Z,12.43
2018-04-10T06:25:22.487Z,12.47
2018-04-10T06:26:22.488Z,12.54
2018-04-10T06:27:22.488Z,12.69
2018-04-10T06:28:22.560Z,12.72
2018-04-10T06:29:22.567Z,12.63
2018-04-10T06:30:22.546Z,12.66
2018-04-10T06:31:22.488Z,12.83
2018-04-10T06:32:22.570Z,12.81
2018-04-10T06:33:22.493Z,12.75
2018-04-10T06:34:24.587Z,12.90
2018-04-10T06:35:22.489Z,12.91
2018-04-10T06:36:22.488Z,13.01
2018-04-10T06:37:22.518Z,13.06
2018-04-10T06:38:22.490Z,13.06
2018-04-10T06:39:22.491Z,13.13
2018-04-10T06:40:22.489Z,13.13
2018-04-10T06:41:22.490Z,13.17
2018-04-10T06:42:22.489Z,13.23
2018-04-10T06:43:22.493Z,13.24
2018-04-10T06:44:22.491Z,13.30
2018-04-10T06:45:22.491Z,13.20
2018-04-10T06:46:22.492Z,13.24
2018-04-10T06:47:22.493Z,13.24
2018-04-10T06:48:22.493Z,13.24
2018-04-10T06:49:22.493Z,13.33
2018-04-10T06:50:22.494Z,13.40
2018-04-10T06:51:22.495Z,13.43
2018-04-10T06:52:22.495Z,13.57
2018-04-10T06:53:22.496Z,13.64
2018-04-10T06:54:22.498Z,13.78
2018-04-10T06:55:22.499Z,13.93
2018-04-10T06:56:22.498Z,14.20
2018-04-10T06:57:22.503Z,14.36
2018-04-10T06:58:22.503Z,14.56
2018-04-10T06:59:22.503Z,14.85
2018-04-10T07:00:22.506Z,15.08
2018-04-10T07:01:22.511Z,15.11
2018-04-10T07:02:22.510Z,15.32
2018-04-10T07:03:22.513Z,15.30
2018-04-10T07:04:22.514Z,15.33
2018-04-10T07:05:22.517Z,15.30
2018-04-10T07:06:22.520Z,15.47
2018-04-10T07:07:22.523Z,15.55
2018-04-10T07:08:22.525Z,15.73
2018-04-10T07:09:22.530Z,16.05
2018-04-10T07:10:22.671Z,16.24
2018-04-10T07:11:22.541Z,16.57
2018-04-10T07:12:22.538Z,16.80
2018-04-10T07:13:22.571Z,16.97
2018-04-10T07:14:22.547Z,17.22
2018-04-10T07:15:22.552Z,17.50
2018-04-10T07:16:22.557Z,17.82
2018-04-10T07:17:22.560Z,18.21
2018-04-10T07:18:22.563Z,18.51
2018-04-10T07:19:22.569Z,18.58
2018-04-10T07:20:22.573Z,18.71
2018-04-10T07:21:22.578Z,18.92
2018-04-10T07:22:22.584Z,18.71
2018-04-10T07:23:22.590Z,18.78
2018-04-10T07:24:22.593Z,18.71
2018-04-10T07:25:22.599Z,18.91
2018-04-10T07:26:22.606Z,18.55
2018-04-10T07:27:22.762Z,18.68
2018-04-10T07:28:22.735Z,18.74
2018-04-10T07:29:22.625Z,18.94
2018-04-10T07:30:22.630Z,19.19
2018-04-10T07:31:22.796Z,19.44
2018-04-10T07:32:22.642Z,19.63
2018-04-10T07:33:22.650Z,19.62
2018-04-10T07:34:22.657Z,19.59
2018-04-10T07:35:22.663Z,19.38
2018-04-10T07:36:22.861Z,18.89
2018-04-10T07:37:22.919Z,18.76
2018-04-10T07:38:22.948Z,18.41
2018-04-10T07:39:22.689Z,18.24
2018-04-10T07:40:22.695Z,18.19
2018-04-10T07:41:22.809Z,17.98
2018-04-10T07:42:22.761Z,17.91
2018-04-10T07:43:22.711Z,17.91
2018-04-10T07:44:22.718Z,17.71
2018-04-10T07:45:22.725Z,17.66
2018-04-10T07:46:22.730Z,17.56
2018-04-10T07:47:22.736Z,17.56
2018-04-10T07:48:22.739Z,17.28
2018-04-10T07:49:23.067Z,17.10
2018-04-10T07:50:23.009Z,16.97
2018-04-10T07:51:22.780Z,16.83
2018-04-10T07:52:22.760Z,16.92
2018-04-10T07:53:22.765Z,17.01
2018-04-10T07:54:22.934Z,16.97
2018-04-10T07:55:22.775Z,17.02
2018-04-10T07:56:22.780Z,17.01
2018-04-10T07:57:22.785Z,16.95
2018-04-10T07:58:22.789Z,16.86
2018-04-10T07:59:22.795Z,16.66
2018-04-10T08:00:22.799Z,16.65
2018-04-10T08:01:23.073Z,16.58
2018-04-10T08:02:22.809Z,16.62
2018-04-10T08:03:22.840Z,16.55
2018-04-10T08:04:22.817Z,16.69
2018-04-10T08:05:22.835Z,16.86
2018-04-10T08:06:22.829Z,16.94
2018-04-10T08:07:22.834Z,17.09
2018-04-10T08:08:22.838Z,17.34
2018-04-10T08:09:23.110Z,17.50
2018-04-10T08:10:22.849Z,17.73
2018-04-10T08:11:22.855Z,17.78
2018-04-10T08:12:23.155Z,17.86
2018-04-10T08:13:22.865Z,18.02
2018-04-10T08:14:22.872Z,17.94
2018-04-10T08:15:22.879Z,18.08
2018-04-10T08:16:22.883Z,18.05
2018-04-10T08:17:22.889Z,18.08
2018-04-10T08:18:22.896Z,18.28
2018-04-10T08:19:22.903Z,18.42
2018-04-10T08:20:22.908Z,18.49
2018-04-10T08:21:22.915Z,18.49
2018-04-10T08:22:23.454Z,18.43
2018-04-10T08:23:22.927Z,18.16
2018-04-10T08:24:22.933Z,18.15
2018-04-10T08:25:22.941Z,18.24
2018-04-10T08:26:22.947Z,18.39
2018-04-10T08:27:22.953Z,18.53
2018-04-10T08:28:22.982Z,18.73
2018-04-10T08:29:22.966Z,18.74
2018-04-10T08:30:22.974Z,18.94
2018-04-10T08:31:22.980Z,19.04
2018-04-10T08:32:22.984Z,19.45
2018-04-10T08:33:23.178Z,19.53
2018-04-10T08:34:23.190Z,19.70
2018-04-10T08:35:23.007Z,19.57
2018-04-10T08:36:23.236Z,19.45
2018-04-10T08:37:23.021Z,19.26
2018-04-10T08:38:23.027Z,19.20
2018-04-10T08:39:23.118Z,19.30
2018-04-10T08:40:23.042Z,19.24
2018-04-10T08:41:23.050Z,19.23
2018-04-10T08:42:23.055Z,19.15
2018-04-10T08:43:23.065Z,19.07
2018-04-10T08:44:23.071Z,19.12
2018-04-10T08:45:23.079Z,19.29
2018-04-10T08:46:23.086Z,19.44
2018-04-10T08:47:23.113Z,19.63
2018-04-10T08:48:23.099Z,19.79
2018-04-10T08:49:23.109Z,19.87
2018-04-10T08:50:23.311Z,19.84
2018-04-10T08:51:23.125Z,19.94
2018-04-10T08:52:23.128Z,19.97
2018-04-10T08:53:23.136Z,20.04
2018-04-10T08:54:23.404Z,20.17
2018-04-10T08:55:23.446Z,20.27
2018-04-10T08:56:23.424Z,20.34
2018-04-10T08:57:23.815Z,20.60
2018-04-10T08:58:23.176Z,20.64
2018-04-10T08:59:23.180Z,20.80
2018-04-10T09:00:23.189Z,20.78
2018-04-10T09:01:23.196Z,20.83
2018-04-10T09:02:23.208Z,20.82
2018-04-10T09:03:23.461Z,21.03
2018-04-10T09:04:23.224Z,21.08
2018-04-10T09:05:23.228Z,21.19
2018-04-10T09:06:23.236Z,21.25
2018-04-10T09:07:23.243Z,21.40
2018-04-10T09:08:23.251Z,21.59
2018-04-10T09:09:23.278Z,21.41
2018-04-10T09:10:23.270Z,21.60
2018-04-10T09:11:23.278Z,21.69
2018-04-10T09:12:23.287Z,21.94
2018-04-10T09:13:23.296Z,22.26
2018-04-10T09:14:23.305Z,22.47
2018-04-10T09:15:23.318Z,22.44
2018-04-10T09:16:23.324Z,22.81
2018-04-10T09:17:23.334Z,23.08
2018-04-10T09:18:23.343Z,22.95
2018-04-10T09:19:23.354Z,22.84
2018-04-10T09:20:23.364Z,22.81
2018-04-10T09:21:23.375Z,22.92
2018-04-10T09:22:23.441Z,23.17
2018-04-10T09:23:23.397Z,23.39
2018-04-10T09:24:23.407Z,23.63
2018-04-10T09:25:23.418Z,23.94
2018-04-10T09:26:23.464Z,24.18
2018-04-10T09:27:23.442Z,24.18
2018-04-10T09:28:23.452Z,24.36
2018-04-10T09:29:23.463Z,24.61
2018-04-10T09:30:23.476Z,24.26
2018-04-10T09:31:23.488Z,23.85
2018-04-10T09:32:23.499Z,23.95
2018-04-10T09:33:23.579Z,24.03
2018-04-10T09:34:23.530Z,24.21
2018-04-10T09:35:23.538Z,24.48
2018-04-10T09:36:23.549Z,24.58
2018-04-10T09:37:23.562Z,24.61
2018-04-10T09:38:23.624Z,24.61
2018-04-10T09:39:23.588Z,24.77
2018-04-10T09:40:23.598Z,24.96
2018-04-10T09:41:23.614Z,24.69
2018-04-10T09:42:23.627Z,24.75
2018-04-10T09:43:23.641Z,25.00
2018-04-10T09:44:23.812Z,25.33
2018-04-10T09:45:23.668Z,25.48
2018-04-10T09:46:23.681Z,25.56
2018-04-10T09:47:23.772Z,25.70
2018-04-10T09:48:23.709Z,25.81
2018-04-10T09:49:23.725Z,25.78
2018-04-10T09:50:23.737Z,25.85
2018-04-10T09:51:23.750Z,25.83
2018-04-10T09:52:23.766Z,25.68
2018-04-10T09:53:23.780Z,25.52
2018-04-10T09:54:23.795Z,25.30
2018-04-10T09:55:23.810Z,25.55
2018-04-10T09:56:23.823Z,25.76
2018-04-10T09:57:23.838Z,25.70
2018-04-10T09:58:23.854Z,25.66
2018-04-10T09:59:24.064Z,25.46
2018-04-10T10:00:23.889Z,25.44
2018-04-10T10:01:23.896Z,25.41
2018-04-10T10:02:23.911Z,25.31
2018-04-10T10:03:23.925Z,24.84
2018-04-10T10:04:23.942Z,24.61
2018-04-10T10:05:23.954Z,24.59
2018-04-10T10:06:23.970Z,24.71
2018-04-10T10:07:24.063Z,24.82
2018-04-10T10:08:23.997Z,24.89
2018-04-10T10:09:24.010Z,25.07
2018-04-10T10:10:24.042Z,25.14
2018-04-10T10:11:24.039Z,25.33
2018-04-10T10:12:24.055Z,25.66
2018-04-10T10:13:24.069Z,25.83
2018-04-10T10:14:24.081Z,25.89
2018-04-10T10:15:24.095Z,25.78
2018-04-10T10:16:24.109Z,25.85
2018-04-10T10:17:24.191Z,25.85
2018-04-10T10:18:24.136Z,26.01
2018-04-10T10:19:24.150Z,26.11
2018-04-10T10:20:24.164Z,26.22
2018-04-10T10:21:24.183Z,26.11
2018-04-10T10:22:24.192Z,26.44
2018-04-10T10:23:24.207Z,26.19
2018-04-10T10:24:24.220Z,25.99
2018-04-10T10:25:24.234Z,26.08
2018-04-10T10:26:24.252Z,26.29
2018-04-10T10:27:24.261Z,26.27
2018-04-10T10:28:24.279Z,25.76
2018-04-10T10:29:24.290Z,25.86
2018-04-10T10:30:24.305Z,25.61
2018-04-10T10:31:24.593Z,25.78
2018-04-10T10:32:24.373Z,25.56
2018-04-10T10:33:24.348Z,25.52
2018-04-10T10:34:24.362Z,25.49
2018-04-10T10:35:24.376Z,25.70
2018-04-10T10:36:24.389Z,25.66
2018-04-10T10:37:24.401Z,25.66
2018-04-10T10:38:24.426Z,25.67
2018-04-10T10:39:24.433Z,25.52
2018-04-10T10:40:24.467Z,25.46
2018-04-10T10:41:24.461Z,25.34
2018-04-10T10:42:24.550Z,25.73
2018-04-10T10:43:24.749Z,25.85
2018-04-10T10:44:24.501Z,26.08
2018-04-10T10:45:24.518Z,26.56
2018-04-10T10:46:24.530Z,26.74
2018-04-10T10:47:24.659Z,26.89
2018-04-10T10:48:24.557Z,26.97
2018-04-10T10:49:24.584Z,27.03
2018-04-10T10:50:24.587Z,26.97
2018-04-10T10:51:24.602Z,27.13
2018-04-10T10:52:24.615Z,27.23
2018-04-10T10:53:24.687Z,27.29
2018-04-10T10:54:24.646Z,27.34
2018-04-10T10:55:24.661Z,27.43
2018-04-10T10:56:24.962Z,27.47
2018-04-10T10:57:24.942Z,27.64
2018-04-10T10:58:24.858Z,27.60
2018-04-10T10:59:24.820Z,27.63
2018-04-10T11:00:24.736Z,27.64
2018-04-10T11:01:24.752Z,27.37
2018-04-10T11:02:24.766Z,27.45
2018-04-10T11:03:24.782Z,27.26
2018-04-10T11:04:24.795Z,27.11
2018-04-10T11:05:25.066Z,26.81
2018-04-10T11:06:25.097Z,26.70
2018-04-10T11:07:24.895Z,26.67
2018-04-10T11:08:24.855Z,26.73
2018-04-10T11:09:24.870Z,26.73
2018-04-10T11:10:25.105Z,26.91
2018-04-10T11:11:24.899Z,26.85
2018-04-10T11:12:24.913Z,26.46
2018-04-10T11:13:24.951Z,26.27
2018-04-10T11:14:24.943Z,26.01
2018-04-10T11:15:25.104Z,26.01
2018-04-10T11:16:24.972Z,26.08
2018-04-10T11:17:24.986Z,26.08
2018-04-10T11:20:25.030Z,26.22
2018-04-10T11:21:25.046Z,26.11
2018-04-10T11:22:25.061Z,26.19
2018-04-10T11:23:25.256Z,26.10
2018-04-10T11:24:25.106Z,25.85
2018-04-10T11:25:25.104Z,25.77
2018-04-10T11:26:25.116Z,25.76
2018-04-10T11:27:25.130Z,25.95
2018-04-10T11:28:25.142Z,26.10
2018-04-10T11:29:25.167Z,26.08
2018-04-10T11:30:25.170Z,25.86
2018-04-10T11:31:25.185Z,25.36
2018-04-10T11:32:25.199Z,25.25
2018-04-10T11:33:25.211Z,24.63
2018-04-10T11:34:25.228Z,24.21
2018-04-10T11:35:25.239Z,23.94
2018-04-10T11:36:25.249Z,24.09
2018-04-10T11:37:25.263Z,24.29
2018-04-10T11:38:25.277Z,24.19
2018-04-10T11:39:25.291Z,24.06
2018-04-10T11:40:25.302Z,23.92
2018-04-10T11:41:25.318Z,23.74
2018-04-10T11:42:25.327Z,23.82
2018-04-10T11:43:25.339Z,23.88
2018-04-10T11:44:25.357Z,23.66
2018-04-10T11:45:25.362Z,23.58
2018-04-10T11:46:25.375Z,23.84
2018-04-10T11:47:25.389Z,24.28
2018-04-10T11:48:25.407Z,24.58
2018-04-10T11:49:25.409Z,24.85
2018-04-10T11:50:25.421Z,25.06
2018-04-10T11:51:25.432Z,24.99
2018-04-10T11:52:25.444Z,25.06
2018-04-10T11:53:25.456Z,25.11
2018-04-10T11:54:25.471Z,25.44
2018-04-10T11:55:25.620Z,25.56
2018-04-10T11:56:25.646Z,25.55
2018-04-10T11:57:25.808Z,25.44
2018-04-10T11:58:25.515Z,25.56
2018-04-10T11:59:25.586Z,25.83
2018-04-10T12:00:25.543Z,26.13
2018-04-10T12:01:25.774Z,26.29
2018-04-10T12:02:25.684Z,26.11
2018-04-10T12:03:25.693Z,25.77
2018-04-10T12:04:25.587Z,25.68
2018-04-10T12:05:25.763Z,25.70
2018-04-10T12:06:25.856Z,25.73
2018-04-10T12:07:25.626Z,26.04
2018-04-10T12:08:25.636Z,26.15
2018-04-10T12:09:25.650Z,26.24
2018-04-10T12:10:25.664Z,26.34
2018-04-10T12:11:25.675Z,26.41
2018-04-10T12:12:25.686Z,26.61
2018-04-10T12:13:25.699Z,26.68
2018-04-10T12:14:25.712Z,26.79
2018-04-10T12:15:25.730Z,26.55
2018-04-10T12:16:25.737Z,26.30
2018-04-10T12:17:25.750Z,26.18
2018-04-10T12:18:25.772Z,25.58
2018-04-10T12:19:25.777Z,25.55
2018-04-10T12:20:25.793Z,25.76
2018-04-10T12:21:25.803Z,25.59
2018-04-10T12:22:25.813Z,25.43
2018-04-10T12:23:25.827Z,25.21
2018-04-10T12:24:25.838Z,25.03
2018-04-10T12:25:25.853Z,24.97
2018-04-10T12:26:25.863Z,25.03
2018-04-10T12:27:25.877Z,25.00
2018-04-10T12:28:25.888Z,25.03
2018-04-10T12:29:25.902Z,25.09
2018-04-10T12:30:25.911Z,25.16
2018-04-10T12:31:25.923Z,25.29
2018-04-10T12:32:25.934Z,25.43
2018-04-10T12:33:25.946Z,25.29
2018-04-10T12:34:25.958Z,25.36
2018-04-10T12:35:25.969Z,25.19
2018-04-10T12:36:25.980Z,25.11
2018-04-10T12:37:25.993Z,25.04
2018-04-10T12:38:26.005Z,24.88
2018-04-10T12:39:26.018Z,24.48
2018-04-10T12:40:26.027Z,24.29
2018-04-10T12:41:26.037Z,24.07
2018-04-10T12:42:26.050Z,24.21
2018-04-10T12:43:26.060Z,24.53
2018-04-10T12:44:26.071Z,24.79
2018-04-10T12:45:26.083Z,25.31
2018-04-10T12:46:26.094Z,25.63
2018-04-10T12:47:26.105Z,25.66
2018-04-10T12:48:26.115Z,25.80
2018-04-10T12:49:26.127Z,25.67
2018-04-10T12:50:26.138Z,25.29
2018-04-10T12:51:26.150Z,25.19
2018-04-10T12:52:26.158Z,25.19
2018-04-10T12:53:26.170Z,25.25
2018-04-10T12:54:26.180Z,25.14
2018-04-10T12:55:26.193Z,24.63
2018-04-10T12:56:26.201Z,24.46
2018-04-10T12:57:26.213Z,24.34
2018-04-10T12:58:26.223Z,24.22
2018-04-10T12:59:26.235Z,24.18